sensor_id;sensor_type;location;lat;lon;timestamp;pressure;altitude;pressure_sealevel;temperature
24586;BMP280;12743;52.262;6.172;2022-10-28T00:00:12;101357.47;;;15.29
24586;BMP280;12743;52.262;6.172;2022-10-28T00:02:38;101360.31;;;15.21
24586;BMP280;12743;52.262;6.172;2022-10-28T00:05:05;101362.84;;;15.17
24586;BMP280;12743;52.262;6.172;2022-10-28T00:07:31;101352.19;;;15.14
24586;BMP280;12743;52.262;6.172;2022-10-28T00:09:56;101353.75;;;15.15
24586;BMP280;12743;52.262;6.172;2022-10-28T00:12:21;101346.22;;;15.17
24586;BMP280;12743;52.262;6.172;2022-10-28T00:14:47;101356.38;;;15.15
24586;BMP280;12743;52.262;6.172;2022-10-28T00:17:12;101349.47;;;15.10
24586;BMP280;12743;52.262;6.172;2022-10-28T00:19:37;101345.63;;;15.08
24586;BMP280;12743;52.262;6.172;2022-10-28T00:22:03;101349.34;;;15.07
24586;BMP280;12743;52.262;6.172;2022-10-28T00:24:28;101346.88;;;14.98
24586;BMP280;12743;52.262;6.172;2022-10-28T00:26:53;101340.38;;;14.96
24586;BMP280;12743;52.262;6.172;2022-10-28T00:29:19;101344.88;;;14.95
24586;BMP280;12743;52.262;6.172;2022-10-28T00:31:45;101346.78;;;14.95
24586;BMP280;12743;52.262;6.172;2022-10-28T00:34:13;101335.06;;;14.96
24586;BMP280;12743;52.262;6.172;2022-10-28T00:36:41;101324.56;;;14.84
24586;BMP280;12743;52.262;6.172;2022-10-28T00:39:14;101336.69;;;14.85
24586;BMP280;12743;52.262;6.172;2022-10-28T00:41:43;101330.53;;;14.81
24586;BMP280;12743;52.262;6.172;2022-10-28T00:44:45;101344.84;;;14.80
24586;BMP280;12743;52.262;6.172;2022-10-28T00:52:34;101335.06;;;14.80
24586;BMP280;12743;52.262;6.172;2022-10-28T00:55:00;101331.22;;;14.78
24586;BMP280;12743;52.262;6.172;2022-10-28T00:57:30;101330.34;;;14.74
24586;BMP280;12743;52.262;6.172;2022-10-28T00:59:58;101330.13;;;14.79
24586;BMP280;12743;52.262;6.172;2022-10-28T01:02:24;101332.22;;;14.73
24586;BMP280;12743;52.262;6.172;2022-10-28T01:04:50;101325.91;;;14.78
24586;BMP280;12743;52.262;6.172;2022-10-28T01:07:16;101327.28;;;14.72
24586;BMP280;12743;52.262;6.172;2022-10-28T01:09:41;101306.94;;;14.60
24586;BMP280;12743;52.262;6.172;2022-10-28T01:17:54;101242.97;;;14.27
24586;BMP280;12743;52.262;6.172;2022-10-28T01:20:42;101285.81;;;14.60
24586;BMP280;12743;52.262;6.172;2022-10-28T01:23:31;101300.66;;;14.65
24586;BMP280;12743;52.262;6.172;2022-10-28T01:26:21;101296.97;;;14.69
24586;BMP280;12743;52.262;6.172;2022-10-28T01:29:19;101291.25;;;14.67
24586;BMP280;12743;52.262;6.172;2022-10-28T01:31:52;101277.94;;;14.64
24586;BMP280;12743;52.262;6.172;2022-10-28T01:37:12;101256.41;;;14.49
24586;BMP280;12743;52.262;6.172;2022-10-28T01:39:57;101272.66;;;14.64
24586;BMP280;12743;52.262;6.172;2022-10-28T01:42:44;101276.94;;;14.68
24586;BMP280;12743;52.262;6.172;2022-10-28T01:45:15;101268.25;;;14.68
24586;BMP280;12743;52.262;6.172;2022-10-28T01:47:54;101273.03;;;14.78
24586;BMP280;12743;52.262;6.172;2022-10-28T01:50:24;101277.88;;;14.76
24586;BMP280;12743;52.262;6.172;2022-10-28T01:52:56;101272.56;;;14.88
24586;BMP280;12743;52.262;6.172;2022-10-28T01:55:26;101272.09;;;14.86
24586;BMP280;12743;52.262;6.172;2022-10-28T01:57:53;101251.00;;;14.74
24586;BMP280;12743;52.262;6.172;2022-10-28T02:00:21;101267.06;;;14.81
24586;BMP280;12743;52.262;6.172;2022-10-28T02:02:47;101269.28;;;14.79
24586;BMP280;12743;52.262;6.172;2022-10-28T02:05:42;101264.94;;;14.86
24586;BMP280;12743;52.262;6.172;2022-10-28T02:10:51;101257.47;;;14.88
24586;BMP280;12743;52.262;6.172;2022-10-28T02:13:20;101251.78;;;14.90
24586;BMP280;12743;52.262;6.172;2022-10-28T02:16:13;101257.94;;;14.78
24586;BMP280;12743;52.262;6.172;2022-10-28T02:19:10;101248.88;;;14.79
24586;BMP280;12743;52.262;6.172;2022-10-28T02:24:25;101259.13;;;14.96
24586;BMP280;12743;52.262;6.172;2022-10-28T02:27:00;101252.66;;;14.94
24586;BMP280;12743;52.262;6.172;2022-10-28T02:29:33;101249.75;;;14.99
24586;BMP280;12743;52.262;6.172;2022-10-28T02:32:03;101254.69;;;15.00
24586;BMP280;12743;52.262;6.172;2022-10-28T02:34:32;101232.09;;;14.87
24586;BMP280;12743;52.262;6.172;2022-10-28T02:37:02;101235.91;;;14.90
24586;BMP280;12743;52.262;6.172;2022-10-28T02:39:35;101236.69;;;14.90
24586;BMP280;12743;52.262;6.172;2022-10-28T02:42:09;101236.94;;;15.01
24586;BMP280;12743;52.262;6.172;2022-10-28T02:44:39;101223.66;;;14.97
24586;BMP280;12743;52.262;6.172;2022-10-28T02:47:15;101230.56;;;15.02
24586;BMP280;12743;52.262;6.172;2022-10-28T02:49:47;101209.97;;;14.95
24586;BMP280;12743;52.262;6.172;2022-10-28T02:52:14;101216.81;;;14.96
24586;BMP280;12743;52.262;6.172;2022-10-28T02:55:07;101219.22;;;15.01
24586;BMP280;12743;52.262;6.172;2022-10-28T02:57:41;101221.06;;;15.01
24586;BMP280;12743;52.262;6.172;2022-10-28T03:00:10;101197.34;;;14.89
24586;BMP280;12743;52.262;6.172;2022-10-28T03:02:38;101222.28;;;15.03
24586;BMP280;12743;52.262;6.172;2022-10-28T03:05:05;101221.25;;;15.08
24586;BMP280;12743;52.262;6.172;2022-10-28T03:07:30;101217.16;;;15.10
24586;BMP280;12743;52.262;6.172;2022-10-28T03:09:56;101210.44;;;14.97
24586;BMP280;12743;52.262;6.172;2022-10-28T03:12:21;101207.28;;;14.92
24586;BMP280;12743;52.262;6.172;2022-10-28T03:14:46;101211.50;;;14.96
24586;BMP280;12743;52.262;6.172;2022-10-28T03:17:12;101218.00;;;14.99
24586;BMP280;12743;52.262;6.172;2022-10-28T03:19:37;101207.69;;;14.94
24586;BMP280;12743;52.262;6.172;2022-10-28T03:22:02;101191.72;;;14.90
24586;BMP280;12743;52.262;6.172;2022-10-28T03:24:28;101183.22;;;14.81
24586;BMP280;12743;52.262;6.172;2022-10-28T03:26:53;101211.63;;;15.00
24586;BMP280;12743;52.262;6.172;2022-10-28T03:29:19;101217.50;;;14.93
24586;BMP280;12743;52.262;6.172;2022-10-28T03:31:45;101221.09;;;14.85
24586;BMP280;12743;52.262;6.172;2022-10-28T03:34:10;101214.19;;;14.81
24586;BMP280;12743;52.262;6.172;2022-10-28T03:36:35;101220.25;;;14.81
24586;BMP280;12743;52.262;6.172;2022-10-28T03:39:01;101213.41;;;14.80
24586;BMP280;12743;52.262;6.172;2022-10-28T03:41:26;101184.47;;;14.56
24586;BMP280;12743;52.262;6.172;2022-10-28T03:43:52;101203.34;;;14.70
24586;BMP280;12743;52.262;6.172;2022-10-28T03:46:17;101202.91;;;14.68
24586;BMP280;12743;52.262;6.172;2022-10-28T03:48:42;101155.88;;;14.30
24586;BMP280;12743;52.262;6.172;2022-10-28T03:51:08;101214.41;;;14.60
24586;BMP280;12743;52.262;6.172;2022-10-28T03:53:33;101204.44;;;14.54
24586;BMP280;12743;52.262;6.172;2022-10-28T03:55:59;101197.94;;;14.51
24586;BMP280;12743;52.262;6.172;2022-10-28T03:58:25;101203.22;;;14.51
24586;BMP280;12743;52.262;6.172;2022-10-28T04:00:51;101212.13;;;14.59
24586;BMP280;12743;52.262;6.172;2022-10-28T04:03:18;101216.94;;;14.57
24586;BMP280;12743;52.262;6.172;2022-10-28T04:05:44;101212.00;;;14.55
24586;BMP280;12743;52.262;6.172;2022-10-28T04:08:12;101210.06;;;14.52
24586;BMP280;12743;52.262;6.172;2022-10-28T04:10:38;101158.47;;;14.15
24586;BMP280;12743;52.262;6.172;2022-10-28T04:13:04;101200.50;;;14.47
24586;BMP280;12743;52.262;6.172;2022-10-28T04:15:30;101211.06;;;14.47
24586;BMP280;12743;52.262;6.172;2022-10-28T04:17:56;101195.41;;;14.42
24586;BMP280;12743;52.262;6.172;2022-10-28T04:20:22;101203.53;;;14.49
24586;BMP280;12743;52.262;6.172;2022-10-28T04:22:47;101159.00;;;14.20
24586;BMP280;12743;52.262;6.172;2022-10-28T04:25:12;101201.00;;;14.53
24586;BMP280;12743;52.262;6.172;2022-10-28T04:27:38;101197.59;;;14.52
24586;BMP280;12743;52.262;6.172;2022-10-28T04:30:04;101201.44;;;14.55
24586;BMP280;12743;52.262;6.172;2022-10-28T04:32:29;101200.66;;;14.55
24586;BMP280;12743;52.262;6.172;2022-10-28T04:34:54;101199.88;;;14.54
24586;BMP280;12743;52.262;6.172;2022-10-28T04:37:20;101204.00;;;14.52
24586;BMP280;12743;52.262;6.172;2022-10-28T04:39:45;101204.00;;;14.52
24586;BMP280;12743;52.262;6.172;2022-10-28T04:42:11;101202.22;;;14.56
24586;BMP280;12743;52.262;6.172;2022-10-28T04:44:36;101205.53;;;14.52
24586;BMP280;12743;52.262;6.172;2022-10-28T04:47:01;101205.19;;;14.54
24586;BMP280;12743;52.262;6.172;2022-10-28T04:49:27;101203.66;;;14.53
24586;BMP280;12743;52.262;6.172;2022-10-28T04:51:52;101198.38;;;14.53
24586;BMP280;12743;52.262;6.172;2022-10-28T04:54:17;101191.09;;;14.50
24586;BMP280;12743;52.262;6.172;2022-10-28T04:56:43;101193.75;;;14.50
24586;BMP280;12743;52.262;6.172;2022-10-28T04:59:08;101195.22;;;14.47
24586;BMP280;12743;52.262;6.172;2022-10-28T05:01:33;101179.94;;;14.41
24586;BMP280;12743;52.262;6.172;2022-10-28T05:03:59;101198.53;;;14.44
24586;BMP280;12743;52.262;6.172;2022-10-28T05:06:24;101196.31;;;14.46
24586;BMP280;12743;52.262;6.172;2022-10-28T05:08:49;101195.41;;;14.42
24586;BMP280;12743;52.262;6.172;2022-10-28T05:11:15;101200.72;;;14.42
24586;BMP280;12743;52.262;6.172;2022-10-28T05:13:40;101207.91;;;14.42
24586;BMP280;12743;52.262;6.172;2022-10-28T05:16:06;101195.38;;;14.39
24586;BMP280;12743;52.262;6.172;2022-10-28T05:18:32;101192.66;;;14.35
24586;BMP280;12743;52.262;6.172;2022-10-28T05:20:57;101184.53;;;14.28
24586;BMP280;12743;52.262;6.172;2022-10-28T05:23:23;101189.47;;;14.30
24586;BMP280;12743;52.262;6.172;2022-10-28T05:25:49;101183.41;;;14.29
24586;BMP280;12743;52.262;6.172;2022-10-28T05:28:14;101178.03;;;14.26
24586;BMP280;12743;52.262;6.172;2022-10-28T05:30:40;101181.88;;;14.28
24586;BMP280;12743;52.262;6.172;2022-10-28T05:33:06;101173.38;;;14.35
24586;BMP280;12743;52.262;6.172;2022-10-28T05:35:32;101175.06;;;14.43
24586;BMP280;12743;52.262;6.172;2022-10-28T05:37:57;101180.78;;;14.45
24586;BMP280;12743;52.262;6.172;2022-10-28T05:40:23;101175.25;;;14.50
24586;BMP280;12743;52.262;6.172;2022-10-28T05:42:49;101177.38;;;14.44
24586;BMP280;12743;52.262;6.172;2022-10-28T05:45:14;101180.63;;;14.54
24586;BMP280;12743;52.262;6.172;2022-10-28T05:47:46;101174.16;;;14.51
24586;BMP280;12743;52.262;6.172;2022-10-28T05:50:13;101153.31;;;14.34
24586;BMP280;12743;52.262;6.172;2022-10-28T05:52:44;101180.13;;;14.48
24586;BMP280;12743;52.262;6.172;2022-10-28T05:55:09;101156.53;;;14.27
24586;BMP280;12743;52.262;6.172;2022-10-28T05:57:35;101177.38;;;14.44
24586;BMP280;12743;52.262;6.172;2022-10-28T06:00:01;101168.34;;;14.45
24586;BMP280;12743;52.262;6.172;2022-10-28T06:02:27;101172.53;;;14.46
24586;BMP280;12743;52.262;6.172;2022-10-28T06:04:52;101166.53;;;14.49
24586;BMP280;12743;52.262;6.172;2022-10-28T06:07:17;101174.47;;;14.49
24586;BMP280;12743;52.262;6.172;2022-10-28T06:09:43;101164.94;;;14.45
24586;BMP280;12743;52.262;6.172;2022-10-28T06:12:08;101175.09;;;14.59
24586;BMP280;12743;52.262;6.172;2022-10-28T06:14:33;101168.44;;;14.49
24586;BMP280;12743;52.262;6.172;2022-10-28T06:16:59;101164.16;;;14.44
24586;BMP280;12743;52.262;6.172;2022-10-28T06:19:24;101187.88;;;14.57
24586;BMP280;12743;52.262;6.172;2022-10-28T06:21:50;101191.28;;;14.57
24586;BMP280;12743;52.262;6.172;2022-10-28T06:24:15;101180.53;;;14.50
24586;BMP280;12743;52.262;6.172;2022-10-28T06:26:40;101174.94;;;14.52
24586;BMP280;12743;52.262;6.172;2022-10-28T06:29:10;101178.84;;;14.42
24586;BMP280;12743;52.262;6.172;2022-10-28T06:31:38;101188.81;;;14.48
24586;BMP280;12743;52.262;6.172;2022-10-28T06:34:04;101192.88;;;14.46
24586;BMP280;12743;52.262;6.172;2022-10-28T06:36:30;101190.69;;;14.48
24586;BMP280;12743;52.262;6.172;2022-10-28T06:38:55;101198.06;;;14.42
24586;BMP280;12743;52.262;6.172;2022-10-28T06:41:20;101193.22;;;14.44
24586;BMP280;12743;52.262;6.172;2022-10-28T06:43:46;101200.50;;;14.47
24586;BMP280;12743;52.262;6.172;2022-10-28T06:46:11;101199.03;;;14.50
24586;BMP280;12743;52.262;6.172;2022-10-28T06:48:37;101200.91;;;14.49
24586;BMP280;12743;52.262;6.172;2022-10-28T06:51:02;101203.47;;;14.46
24586;BMP280;12743;52.262;6.172;2022-10-28T06:53:27;101207.53;;;14.43
24586;BMP280;12743;52.262;6.172;2022-10-28T06:55:54;101199.88;;;14.38
24586;BMP280;12743;52.262;6.172;2022-10-28T06:58:20;101207.16;;;14.41
24586;BMP280;12743;52.262;6.172;2022-10-28T07:00:46;101213.41;;;14.37
24586;BMP280;12743;52.262;6.172;2022-10-28T07:03:12;101207.81;;;14.38
24586;BMP280;12743;52.262;6.172;2022-10-28T07:05:37;101212.31;;;14.38
24586;BMP280;12743;52.262;6.172;2022-10-28T07:08:03;101207.16;;;14.41
24586;BMP280;12743;52.262;6.172;2022-10-28T07:10:28;101189.81;;;14.28
24586;BMP280;12743;52.262;6.172;2022-10-28T07:12:54;101218.56;;;14.45
24586;BMP280;12743;52.262;6.172;2022-10-28T07:15:19;101216.75;;;14.49
24586;BMP280;12743;52.262;6.172;2022-10-28T07:17:54;101212.34;;;14.54
24586;BMP280;12743;52.262;6.172;2022-10-28T07:20:20;101214.22;;;14.53
24586;BMP280;12743;52.262;6.172;2022-10-28T07:22:45;101215.84;;;14.58
24586;BMP280;12743;52.262;6.172;2022-10-28T07:25:10;101216.81;;;14.65
24586;BMP280;12743;52.262;6.172;2022-10-28T07:27:36;101192.38;;;14.56
24586;BMP280;12743;52.262;6.172;2022-10-28T07:30:01;101216.22;;;14.72
24586;BMP280;12743;52.262;6.172;2022-10-28T07:32:31;101216.31;;;14.75
24586;BMP280;12743;52.262;6.172;2022-10-28T07:34:56;101200.44;;;14.75
24586;BMP280;12743;52.262;6.172;2022-10-28T07:37:21;101210.69;;;14.77
24586;BMP280;12743;52.262;6.172;2022-10-28T07:39:47;101213.84;;;14.82
24586;BMP280;12743;52.262;6.172;2022-10-28T07:42:12;101216.91;;;14.84
24586;BMP280;12743;52.262;6.172;2022-10-28T07:44:38;101224.94;;;14.88
24586;BMP280;12743;52.262;6.172;2022-10-28T07:47:03;101222.38;;;14.91
24586;BMP280;12743;52.262;6.172;2022-10-28T07:49:29;101212.13;;;14.90
24586;BMP280;12743;52.262;6.172;2022-10-28T07:51:54;101208.19;;;14.84
24586;BMP280;12743;52.262;6.172;2022-10-28T07:54:19;101197.47;;;14.77
24586;BMP280;12743;52.262;6.172;2022-10-28T07:56:45;101220.50;;;14.92
24586;BMP280;12743;52.262;6.172;2022-10-28T07:59:10;101207.41;;;14.83
24586;BMP280;12743;52.262;6.172;2022-10-28T08:01:36;101216.50;;;14.98
24586;BMP280;12743;52.262;6.172;2022-10-28T08:04:01;101217.75;;;15.04
24586;BMP280;12743;52.262;6.172;2022-10-28T08:06:27;101215.53;;;15.06
24586;BMP280;12743;52.262;6.172;2022-10-28T08:08:54;101224.13;;;15.18
24586;BMP280;12743;52.262;6.172;2022-10-28T08:11:20;101218.69;;;15.27
24586;BMP280;12743;52.262;6.172;2022-10-28T08:13:50;101224.53;;;15.36
24586;BMP280;12743;52.262;6.172;2022-10-28T08:16:16;101225.47;;;15.44
24586;BMP280;12743;52.262;6.172;2022-10-28T08:18:42;101215.75;;;15.48
24586;BMP280;12743;52.262;6.172;2022-10-28T08:21:09;101215.81;;;15.51
24586;BMP280;12743;52.262;6.172;2022-10-28T08:23:35;101217.06;;;15.57
24586;BMP280;12743;52.262;6.172;2022-10-28T08:26:00;101225.59;;;15.66
24586;BMP280;12743;52.262;6.172;2022-10-28T08:28:26;101228.38;;;15.73
24586;BMP280;12743;52.262;6.172;2022-10-28T08:30:51;101227.75;;;15.80
24586;BMP280;12743;52.262;6.172;2022-10-28T08:33:17;101225.59;;;15.85
24586;BMP280;12743;52.262;6.172;2022-10-28T08:35:42;101232.81;;;16.04
24586;BMP280;12743;52.262;6.172;2022-10-28T08:38:08;101221.13;;;16.08
24586;BMP280;12743;52.262;6.172;2022-10-28T08:43:54;101233.03;;;16.37
24586;BMP280;12743;52.262;6.172;2022-10-28T08:47:03;101230.44;;;16.41
24586;BMP280;12743;52.262;6.172;2022-10-28T08:49:32;101221.81;;;16.47
24586;BMP280;12743;52.262;6.172;2022-10-28T08:54:54;101223.41;;;16.52
24586;BMP280;12743;52.262;6.172;2022-10-28T08:57:33;101229.16;;;16.54
24586;BMP280;12743;52.262;6.172;2022-10-28T09:00:01;101232.28;;;16.59
24586;BMP280;12743;52.262;6.172;2022-10-28T09:02:35;101241.41;;;16.62
24586;BMP280;12743;52.262;6.172;2022-10-28T09:07:44;101246.25;;;16.79
24586;BMP280;12743;52.262;6.172;2022-10-28T09:10:12;101240.94;;;17.02
24586;BMP280;12743;52.262;6.172;2022-10-28T09:12:53;101249.81;;;17.13
24586;BMP280;12743;52.262;6.172;2022-10-28T09:15:35;101239.50;;;17.34
24586;BMP280;12743;52.262;6.172;2022-10-28T09:18:39;101237.44;;;17.50
24586;BMP280;12743;52.262;6.172;2022-10-28T09:21:13;101240.09;;;17.50
24586;BMP280;12743;52.262;6.172;2022-10-28T09:23:48;101238.63;;;17.52
24586;BMP280;12743;52.262;6.172;2022-10-28T09:31:36;101241.47;;;17.40
24586;BMP280;12743;52.262;6.172;2022-10-28T09:37:12;101194.63;;;17.25
24586;BMP280;12743;52.262;6.172;2022-10-28T09:39:51;101242.47;;;17.58
24586;BMP280;12743;52.262;6.172;2022-10-28T09:42:41;101241.09;;;17.68
24586;BMP280;12743;52.262;6.172;2022-10-28T09:45:28;101233.22;;;17.75
24586;BMP280;12743;52.262;6.172;2022-10-28T09:47:58;101219.16;;;17.74
24586;BMP280;12743;52.262;6.172;2022-10-28T09:50:27;101226.53;;;17.88
24586;BMP280;12743;52.262;6.172;2022-10-28T09:53:11;101231.09;;;17.91
24586;BMP280;12743;52.262;6.172;2022-10-28T09:55:40;101236.78;;;17.89
24586;BMP280;12743;52.262;6.172;2022-10-28T09:58:05;101225.78;;;17.91
24586;BMP280;12743;52.262;6.172;2022-10-28T10:00:31;101224.47;;;18.08
24586;BMP280;12743;52.262;6.172;2022-10-28T10:02:57;101211.50;;;18.06
24586;BMP280;12743;52.262;6.172;2022-10-28T10:05:24;101227.59;;;18.17
24586;BMP280;12743;52.262;6.172;2022-10-28T10:08:05;101211.53;;;18.10
24586;BMP280;12743;52.262;6.172;2022-10-28T10:13:08;101222.50;;;18.41
24586;BMP280;12743;52.262;6.172;2022-10-28T10:15:37;101224.72;;;18.36
24586;BMP280;12743;52.262;6.172;2022-10-28T10:18:06;101232.44;;;18.48
24586;BMP280;12743;52.262;6.172;2022-10-28T10:20:49;101230.19;;;18.50
24586;BMP280;12743;52.262;6.172;2022-10-28T10:23:41;101226.03;;;18.56
24586;BMP280;12743;52.262;6.172;2022-10-28T10:26:14;101230.22;;;18.57
24586;BMP280;12743;52.262;6.172;2022-10-28T10:28:48;101235.53;;;18.57
24586;BMP280;12743;52.262;6.172;2022-10-28T10:31:22;101234.00;;;18.56
24586;BMP280;12743;52.262;6.172;2022-10-28T10:33:54;101237.84;;;18.55
24586;BMP280;12743;52.262;6.172;2022-10-28T10:36:22;101232.91;;;18.60
24586;BMP280;12743;52.262;6.172;2022-10-28T10:38:54;101231.81;;;18.65
24586;BMP280;12743;52.262;6.172;2022-10-28T10:41:40;101234.56;;;18.79
24586;BMP280;12743;52.262;6.172;2022-10-28T10:49:33;101213.72;;;18.88
24586;BMP280;12743;52.262;6.172;2022-10-28T10:52:06;101212.97;;;18.88
24586;BMP280;12743;52.262;6.172;2022-10-28T10:54:41;101224.44;;;19.02
24586;BMP280;12743;52.262;6.172;2022-10-28T10:57:18;101219.56;;;19.08
24586;BMP280;12743;52.262;6.172;2022-10-28T10:59:46;101219.56;;;19.15
24586;BMP280;12743;52.262;6.172;2022-10-28T11:02:26;101216.19;;;19.25
24586;BMP280;12743;52.262;6.172;2022-10-28T11:04:55;101213.56;;;19.28
24586;BMP280;12743;52.262;6.172;2022-10-28T11:07:21;101211.69;;;19.36
24586;BMP280;12743;52.262;6.172;2022-10-28T11:09:48;101194.19;;;19.35
24586;BMP280;12743;52.262;6.172;2022-10-28T11:12:29;101200.31;;;19.46
24586;BMP280;12743;52.262;6.172;2022-10-28T11:15:01;101203.38;;;19.51
24586;BMP280;12743;52.262;6.172;2022-10-28T11:17:28;101203.81;;;19.60
24586;BMP280;12743;52.262;6.172;2022-10-28T11:19:56;101196.94;;;19.63
24586;BMP280;12743;52.262;6.172;2022-10-28T11:30:15;101184.78;;;19.72
24586;BMP280;12743;52.262;6.172;2022-10-28T11:35:38;101164.19;;;19.62
24586;BMP280;12743;52.262;6.172;2022-10-28T11:38:14;101182.13;;;19.79
24586;BMP280;12743;52.262;6.172;2022-10-28T11:41:09;101180.97;;;19.80
24586;BMP280;12743;52.262;6.172;2022-10-28T11:43:54;101184.06;;;19.79
24586;BMP280;12743;52.262;6.172;2022-10-28T11:46:34;101178.72;;;19.83
24586;BMP280;12743;52.262;6.172;2022-10-28T11:49:49;101116.59;;;19.57
24586;BMP280;12743;52.262;6.172;2022-10-28T11:55:24;101158.91;;;19.76
24586;BMP280;12743;52.262;6.172;2022-10-28T12:00:49;101168.84;;;19.94
24586;BMP280;12743;52.262;6.172;2022-10-28T12:03:30;101181.41;;;20.07
24586;BMP280;12743;52.262;6.172;2022-10-28T12:06:14;101172.28;;;20.08
24586;BMP280;12743;52.262;6.172;2022-10-28T12:09:08;101176.84;;;20.11
24586;BMP280;12743;52.262;6.172;2022-10-28T12:20:12;101182.59;;;20.17
24586;BMP280;12743;52.262;6.172;2022-10-28T12:22:59;101167.31;;;20.07
24586;BMP280;12743;52.262;6.172;2022-10-28T12:25:28;101179.88;;;20.27
24586;BMP280;12743;52.262;6.172;2022-10-28T12:27:59;101155.50;;;20.08
24586;BMP280;12743;52.262;6.172;2022-10-28T12:30:31;101173.03;;;20.33
24586;BMP280;12743;52.262;6.172;2022-10-28T12:33:09;101165.41;;;20.35
24586;BMP280;12743;52.262;6.172;2022-10-28T12:35:40;101168.06;;;20.32
24586;BMP280;12743;52.262;6.172;2022-10-28T12:43:28;101200.47;;;20.41
24586;BMP280;12743;52.262;6.172;2022-10-28T12:45:56;101172.63;;;20.31
24586;BMP280;12743;52.262;6.172;2022-10-28T12:48:39;101182.91;;;20.43
24586;BMP280;12743;52.262;6.172;2022-10-28T12:51:32;101159.69;;;20.37
24586;BMP280;12743;52.262;6.172;2022-10-28T12:56:41;101176.44;;;20.62
24586;BMP280;12743;52.262;6.172;2022-10-28T13:01:46;101187.47;;;20.71
24586;BMP280;12743;52.262;6.172;2022-10-28T13:04:13;101169.56;;;20.54
24586;BMP280;12743;52.262;6.172;2022-10-28T13:06:53;101195.84;;;20.73
24586;BMP280;12743;52.262;6.172;2022-10-28T13:18:24;101187.09;;;20.69
24586;BMP280;12743;52.262;6.172;2022-10-28T13:21:22;101184.44;;;20.65
24586;BMP280;12743;52.262;6.172;2022-10-28T13:26:23;101204.25;;;20.68
24586;BMP280;12743;52.262;6.172;2022-10-28T13:28:53;101204.25;;;20.64
24586;BMP280;12743;52.262;6.172;2022-10-28T13:31:19;101205.78;;;20.62
24586;BMP280;12743;52.262;6.172;2022-10-28T13:34:05;101195.88;;;20.66
24586;BMP280;12743;52.262;6.172;2022-10-28T13:36:35;101197.78;;;20.62
24586;BMP280;12743;52.262;6.172;2022-10-28T13:39:05;101211.91;;;20.52
24586;BMP280;12743;52.262;6.172;2022-10-28T13:41:31;101214.19;;;20.50
24586;BMP280;12743;52.262;6.172;2022-10-28T13:49:32;101214.19;;;20.50
24586;BMP280;12743;52.262;6.172;2022-10-28T13:57:06;101200.09;;;20.35
24586;BMP280;12743;52.262;6.172;2022-10-28T13:59:45;101216.88;;;20.36
24586;BMP280;12743;52.262;6.172;2022-10-28T14:02:23;101212.66;;;20.35
24586;BMP280;12743;52.262;6.172;2022-10-28T14:05:12;101220.31;;;20.29
24586;BMP280;12743;52.262;6.172;2022-10-28T14:07:57;101226.00;;;20.28
24586;BMP280;12743;52.262;6.172;2022-10-28T14:10:25;101230.19;;;20.18
24586;BMP280;12743;52.262;6.172;2022-10-28T14:13:02;101240.09;;;20.18
24586;BMP280;12743;52.262;6.172;2022-10-28T14:15:34;101244.66;;;20.17
24586;BMP280;12743;52.262;6.172;2022-10-28T14:18:04;101263.72;;;20.09
24586;BMP280;12743;52.262;6.172;2022-10-28T14:20:38;101259.50;;;20.04
24586;BMP280;12743;52.262;6.172;2022-10-28T14:43:07;101280.84;;;19.94
24586;BMP280;12743;52.262;6.172;2022-10-28T14:45:19;101291.47;;;19.87
24586;BMP280;12743;52.262;6.172;2022-10-28T14:50:38;101281.94;;;19.78
24586;BMP280;12743;52.262;6.172;2022-10-28T14:53:06;101291.44;;;19.76
24586;BMP280;12743;52.262;6.172;2022-10-28T14:55:35;101292.53;;;19.71
24586;BMP280;12743;52.262;6.172;2022-10-28T14:58:15;101289.53;;;19.73
24586;BMP280;12743;52.262;6.172;2022-10-28T15:00:55;101292.53;;;19.71
24586;BMP280;12743;52.262;6.172;2022-10-28T15:03:24;101281.84;;;19.61
24586;BMP280;12743;52.262;6.172;2022-10-28T15:05:50;101289.50;;;19.66
24586;BMP280;12743;52.262;6.172;2022-10-28T15:08:16;101287.16;;;19.57
24586;BMP280;12743;52.262;6.172;2022-10-28T15:10:47;101291.72;;;19.53
24586;BMP280;12743;52.262;6.172;2022-10-28T15:13:14;101295.88;;;19.54
24586;BMP280;12743;52.262;6.172;2022-10-28T15:15:50;101266.91;;;19.42
24586;BMP280;12743;52.262;6.172;2022-10-28T15:18:24;101291.69;;;19.46
24586;BMP280;12743;52.262;6.172;2022-10-28T15:21:07;101286.34;;;19.43
24586;BMP280;12743;52.262;6.172;2022-10-28T15:23:33;101295.78;;;19.33
24586;BMP280;12743;52.262;6.172;2022-10-28T15:26:10;101297.31;;;19.31
24586;BMP280;12743;52.262;6.172;2022-10-28T15:28:37;101288.81;;;19.15
24586;BMP280;12743;52.262;6.172;2022-10-28T15:31:02;101298.75;;;19.21
24586;BMP280;12743;52.262;6.172;2022-10-28T15:33:36;101323.84;;;19.17
24586;BMP280;12743;52.262;6.172;2022-10-28T15:38:40;101315.06;;;19.09
24586;BMP280;12743;52.262;6.172;2022-10-28T15:41:45;101333.28;;;19.04
24586;BMP280;12743;52.262;6.172;2022-10-28T15:47:16;101302.66;;;18.80
24586;BMP280;12743;52.262;6.172;2022-10-28T15:49:42;101323.69;;;18.96
24586;BMP280;12743;52.262;6.172;2022-10-28T15:54:42;101310.69;;;18.87
24586;BMP280;12743;52.262;6.172;2022-10-28T15:57:29;101320.59;;;18.90
24586;BMP280;12743;52.262;6.172;2022-10-28T16:02:48;101328.50;;;18.79
24586;BMP280;12743;52.262;6.172;2022-10-28T16:08:24;101331.13;;;18.76
24586;BMP280;12743;52.262;6.172;2022-10-28T16:11:16;101348.56;;;18.70
24586;BMP280;12743;52.262;6.172;2022-10-28T16:13:45;101355.00;;;18.69
24586;BMP280;12743;52.262;6.172;2022-10-28T16:16:14;101345.72;;;18.52
24586;BMP280;12743;52.262;6.172;2022-10-28T16:18:45;101356.00;;;18.50
24586;BMP280;12743;52.262;6.172;2022-10-28T16:21:16;101361.00;;;18.59
24586;BMP280;12743;52.262;6.172;2022-10-28T16:23:43;101362.47;;;18.56
24586;BMP280;12743;52.262;6.172;2022-10-28T16:26:11;101368.22;;;18.55
24586;BMP280;12743;52.262;6.172;2022-10-28T16:28:37;101372.69;;;18.51
24586;BMP280;12743;52.262;6.172;2022-10-28T16:31:02;101377.66;;;18.52
24586;BMP280;12743;52.262;6.172;2022-10-28T16:33:32;101377.34;;;18.57